Time;durP1;ratioP1;P1;durP2;ratioP2;P2;SDS_P1;SDS_P2;PMS_P1;PMS_P2;Temp;Humidity;BMP_temperature;BMP_pressure;BME280_temperature;BME280_humidity;BME280_pressure;Samples;Min_cycle;Max_cycle;Signal;HPM_P1;HPM_P2
2022/07/18 00:00:19;;;;;;;2.53;1.55;;;24.40;43.10;23.50;102108.00;;;;5041380;28;20032;-67
2022/07/18 00:03:05;;;;;;;2.05;1.17;;;24.40;43.10;23.50;102115.00;;;;5024730;28;20038;-67
2022/07/18 00:05:51;;;;;;;3.03;1.50;;;24.40;43.10;23.50;102122.00;;;;5021039;28;20049;-67
2022/07/18 00:08:37;;;;;;;3.53;1.33;;;24.40;43.20;23.50;102116.00;;;;5023056;28;20045;-67
2022/07/18 00:11:23;;;;;;;2.70;1.60;;;24.40;43.20;23.50;102111.00;;;;5018973;28;20049;-67
2022/07/18 00:14:10;;;;;;;3.17;1.58;;;24.30;43.10;23.50;102103.00;;;;5021729;28;20042;-67
2022/07/18 00:16:56;;;;;;;2.88;1.25;;;24.30;43.10;23.50;102097.00;;;;5028382;28;20491;-67
2022/07/18 00:19:42;;;;;;;2.08;1.50;;;24.30;43.10;23.40;102095.00;;;;5021570;28;20470;-67
2022/07/18 00:22:28;;;;;;;2.33;1.52;;;24.20;43.10;23.50;102098.00;;;;5020127;28;20045;-67
2022/07/18 00:25:14;;;;;;;4.28;1.52;;;24.20;43.20;23.40;102092.00;;;;5021229;28;20471;-67
2022/07/18 00:28:00;;;;;;;4.85;1.38;;;24.30;43.20;23.50;102089.00;;;;5021568;28;20045;-67
2022/07/18 00:30:46;;;;;;;3.03;1.60;;;24.30;43.20;23.40;102086.00;;;;5028225;28;20411;-67
2022/07/18 00:33:32;;;;;;;3.47;1.48;;;24.30;43.20;23.40;102088.00;;;;5017898;28;20076;-67
2022/07/18 00:36:18;;;;;;;5.72;1.50;;;24.30;43.20;23.40;102092.00;;;;5024610;28;20739;-67
2022/07/18 00:39:04;;;;;;;2.67;1.50;;;24.30;43.20;23.40;102086.00;;;;5020016;28;20037;-67
2022/07/18 00:41:50;;;;;;;3.25;1.65;;;24.20;43.20;23.40;102093.00;;;;5024411;28;20072;-67
2022/07/18 00:44:36;;;;;;;3.83;1.33;;;24.20;43.20;23.40;102094.00;;;;5018680;28;20034;-67
2022/07/18 00:47:23;;;;;;;3.40;1.52;;;24.20;43.20;23.40;102099.00;;;;5022032;28;20075;-67
2022/07/18 00:50:09;;;;;;;2.72;1.17;;;24.20;43.30;23.40;102095.00;;;;5011330;28;20058;-67
2022/07/18 00:52:55;;;;;;;1.90;1.35;;;24.20;43.30;23.40;102099.00;;;;5022336;28;20057;-66
2022/07/18 00:55:43;;;;;;;5.13;1.65;;;24.20;43.30;23.40;102097.00;;;;5023675;28;20052;-67
2022/07/18 00:58:30;;;;;;;3.05;1.45;;;24.20;43.30;23.40;102099.00;;;;5022856;28;20068;-67
2022/07/18 01:04:22;;;;;;;3.13;1.65;;;24.20;43.30;23.30;102097.00;;;;5022377;28;20394;-67
2022/07/18 01:07:09;;;;;;;2.05;1.13;;;24.20;43.30;23.30;102092.00;;;;5033342;28;20336;-67
2022/07/18 01:09:55;;;;;;;2.08;1.55;;;24.20;43.30;23.30;102087.00;;;;5027061;28;20120;-67
2022/07/18 01:12:41;;;;;;;2.42;1.30;;;24.20;43.40;23.30;102088.00;;;;5023805;28;20523;-67
2022/07/18 01:15:27;;;;;;;3.67;1.45;;;24.10;43.30;23.30;102092.00;;;;5025723;28;20042;-67
2022/07/18 01:18:13;;;;;;;2.97;1.70;;;24.10;43.40;23.30;102089.00;;;;5022556;28;20041;-67
2022/07/18 01:20:59;;;;;;;3.70;1.38;;;24.20;43.40;23.30;102081.00;;;;5020090;28;20045;-67
2022/07/18 01:23:45;;;;;;;1.55;1.33;;;24.10;43.40;23.30;102085.00;;;;5015422;28;20049;-67
2022/07/18 01:26:31;;;;;;;2.38;1.45;;;24.10;43.40;23.30;102078.00;;;;5014281;28;20141;-67
2022/07/18 01:29:17;;;;;;;3.47;1.58;;;24.10;43.40;23.30;102081.00;;;;5022677;28;20092;-67
2022/07/18 01:32:07;;;;;;;2.08;1.48;;;24.10;43.40;23.30;102074.00;;;;5028915;28;20107;-67
2022/07/18 01:34:53;;;;;;;3.33;1.50;;;24.10;43.40;23.30;102071.00;;;;5022329;28;20566;-67
2022/07/18 01:37:39;;;;;;;1.90;1.50;;;24.10;43.50;23.30;102070.00;;;;5025382;28;20049;-67
2022/07/18 01:40:26;;;;;;;2.78;1.52;;;24.10;43.50;23.30;102065.00;;;;5028043;28;20444;-67
2022/07/18 01:43:12;;;;;;;4.20;1.67;;;24.10;43.50;23.30;102059.00;;;;5025012;28;20036;-67
2022/07/18 01:45:58;;;;;;;6.03;1.55;;;24.00;43.40;23.30;102061.00;;;;5024752;28;20042;-67
2022/07/18 01:48:44;;;;;;;2.25;1.33;;;24.00;43.50;23.30;102064.00;;;;5024598;28;20037;-66
2022/07/18 01:51:30;;;;;;;3.17;1.52;;;24.00;43.40;23.30;102057.00;;;;5021395;28;20050;-67
2022/07/18 01:54:20;;;;;;;1.42;1.30;;;24.00;43.40;23.20;102068.00;;;;5047657;28;20053;-67
2022/07/18 01:57:06;;;;;;;2.22;1.42;;;24.10;43.50;23.20;102068.00;;;;5023182;28;20167;-67
2022/07/18 01:59:52;;;;;;;2.33;1.40;;;24.00;43.40;23.20;102062.00;;;;5027682;28;20038;-67
2022/07/18 02:02:38;;;;;;;2.33;1.25;;;24.00;43.50;23.20;102063.00;;;;5023555;28;20499;-67
2022/07/18 02:05:25;;;;;;;1.88;1.33;;;24.00;43.80;23.20;102062.00;;;;5027717;28;20506;-67
2022/07/18 02:08:11;;;;;;;3.03;1.48;;;24.00;43.50;23.20;102052.00;;;;5021097;28;20041;-67
2022/07/18 02:10:57;;;;;;;2.13;1.13;;;24.00;43.50;23.20;102056.00;;;;5021862;28;20054;-66
2022/07/18 02:13:43;;;;;;;1.90;1.23;;;24.00;43.60;23.20;102054.00;;;;5019931;28;20037;-67
2022/07/18 02:16:29;;;;;;;2.58;1.33;;;24.00;43.60;23.20;102054.00;;;;5028843;28;20049;-67
2022/07/18 02:19:15;;;;;;;1.80;1.25;;;24.00;43.50;23.20;102054.00;;;;5022967;28;20034;-66
2022/07/18 02:22:01;;;;;;;2.78;1.65;;;24.00;43.50;23.20;102051.00;;;;5026455;28;20038;-67
2022/07/18 02:24:47;;;;;;;2.22;1.30;;;24.00;43.50;23.20;102041.00;;;;5031123;28;20550;-66
2022/07/18 02:27:33;;;;;;;2.00;1.38;;;24.00;43.50;23.20;102038.00;;;;5031119;28;20494;-67
2022/07/18 02:30:20;;;;;;;2.47;1.20;;;24.00;43.50;23.20;102039.00;;;;5031450;28;20114;-67
2022/07/18 02:33:06;;;;;;;3.92;1.80;;;24.00;43.50;23.20;102029.00;;;;5032807;28;20045;-67
2022/07/18 02:35:52;;;;;;;2.55;1.70;;;23.90;43.50;23.20;102028.00;;;;5027484;28;20399;-67
2022/07/18 02:38:38;;;;;;;2.28;1.30;;;24.00;43.60;23.20;102030.00;;;;5022789;28;20502;-67
2022/07/18 02:41:24;;;;;;;2.13;1.45;;;24.00;43.60;23.20;102028.00;;;;5031819;28;20052;-67
2022/07/18 02:44:10;;;;;;;2.63;1.48;;;24.00;43.60;23.10;102027.00;;;;5021776;28;20403;-67
2022/07/18 02:46:56;;;;;;;3.33;1.50;;;24.00;43.60;23.10;102030.00;;;;5030993;28;20052;-67
2022/07/18 02:49:42;;;;;;;3.05;1.67;;;23.90;43.50;23.10;102035.00;;;;5024409;28;20041;-67
2022/07/18 02:52:28;;;;;;;3.33;1.65;;;23.90;43.50;23.10;102039.00;;;;5022493;28;20561;-67
2022/07/18 02:55:14;;;;;;;2.88;1.45;;;23.90;43.60;23.10;102042.00;;;;5027385;28;20052;-67
2022/07/18 02:58:00;;;;;;;4.05;1.35;;;23.90;43.50;23.10;102042.00;;;;5027089;28;20045;-66
2022/07/18 03:00:46;;;;;;;3.00;1.20;;;23.90;43.50;23.10;102045.00;;;;5028513;28;20041;-66
2022/07/18 03:03:32;;;;;;;4.28;1.52;;;23.90;43.50;23.10;102034.00;;;;5021052;28;20615;-67
2022/07/18 03:06:18;;;;;;;4.00;1.30;;;23.90;43.50;23.10;102028.00;;;;5032776;28;20098;-67
2022/07/18 03:09:05;;;;;;;1.90;1.30;;;23.90;43.50;23.10;102029.00;;;;5022643;28;20398;-67
2022/07/18 03:11:51;;;;;;;3.60;1.42;;;23.90;43.50;23.10;102028.00;;;;5029585;28;20038;-67
2022/07/18 03:14:37;;;;;;;2.13;1.50;;;23.80;43.60;23.10;102033.00;;;;5023234;28;20475;-67
2022/07/18 03:17:23;;;;;;;3.88;1.48;;;23.80;43.50;23.10;102036.00;;;;5026112;28;20384;-67
2022/07/18 03:20:10;;;;;;;3.05;1.55;;;23.90;43.60;23.10;102032.00;;;;5023734;28;20098;-67
2022/07/18 03:22:56;;;;;;;1.73;1.33;;;23.80;43.60;23.10;102026.00;;;;5022015;28;20140;-66
2022/07/18 03:25:42;;;;;;;2.10;1.40;;;23.80;43.60;23.10;102038.00;;;;5026263;28;20072;-66
2022/07/18 03:28:28;;;;;;;4.25;1.33;;;23.90;43.60;23.00;102034.00;;;;5024938;28;20126;-66
2022/07/18 03:31:14;;;;;;;2.35;1.40;;;23.80;43.60;23.00;102039.00;;;;5025536;28;20060;-67
2022/07/18 03:34:00;;;;;;;2.35;1.38;;;23.80;43.70;23.00;102032.00;;;;5026005;28;20124;-66
2022/07/18 03:36:46;;;;;;;1.92;1.40;;;23.80;43.70;23.00;102034.00;;;;5025169;28;20452;-67
2022/07/18 03:39:32;;;;;;;2.65;1.42;;;23.80;43.60;23.00;102033.00;;;;5021439;28;20037;-66
2022/07/18 03:42:18;;;;;;;2.15;1.55;;;23.80;43.60;23.00;102035.00;;;;5025889;28;20049;-67
2022/07/18 03:45:06;;;;;;;3.13;1.40;;;23.80;43.60;23.00;102035.00;;;;5023664;28;20053;-66
2022/07/18 03:47:52;;;;;;;1.95;1.50;;;23.80;43.60;23.00;102029.00;;;;5025293;28;20588;-67
2022/07/18 03:50:39;;;;;;;1.70;1.40;;;23.80;43.60;23.00;102034.00;;;;5023242;28;20041;-67
2022/07/18 03:53:25;;;;;;;2.05;1.30;;;23.80;43.60;23.00;102031.00;;;;5017545;28;20048;-66
2022/07/18 03:56:11;;;;;;;1.38;1.10;;;23.80;43.60;23.00;102033.00;;;;5026962;28;20073;-66
2022/07/18 03:58:57;;;;;;;2.13;1.20;;;23.80;43.60;23.00;102030.00;;;;5021631;28;20396;-66
2022/07/18 04:01:43;;;;;;;3.28;1.40;;;23.80;43.60;23.00;102025.00;;;;5021834;28;20297;-66
2022/07/18 04:04:29;;;;;;;2.42;1.40;;;23.80;43.70;23.00;102036.00;;;;5022418;28;20045;-66
2022/07/18 04:07:15;;;;;;;3.60;1.40;;;23.80;43.70;23.00;102033.00;;;;5020178;28;20132;-67
2022/07/18 04:10:02;;;;;;;1.70;1.33;;;23.80;43.70;23.00;102036.00;;;;5023196;28;20049;-66
2022/07/18 04:12:52;;;;;;;2.10;1.33;;;23.80;43.70;23.00;102026.00;;;;5020253;28;20062;-67
2022/07/18 04:15:38;;;;;;;2.38;1.45;;;23.80;43.70;23.00;102033.00;;;;5024994;28;20098;-66
2022/07/18 04:18:24;;;;;;;4.05;1.23;;;23.80;43.60;23.00;102038.00;;;;5018917;28;20068;-67
2022/07/18 04:21:10;;;;;;;2.20;1.40;;;23.80;43.60;23.00;102035.00;;;;5017675;28;20095;-66
2022/07/18 04:23:56;;;;;;;2.45;1.13;;;23.80;43.70;23.00;102032.00;;;;5022641;28;20469;-67
2022/07/18 04:26:42;;;;;;;2.38;1.20;;;23.80;43.60;23.00;102020.00;;;;5018312;28;20042;-66
2022/07/18 04:29:31;;;;;;;3.58;1.30;;;23.80;43.60;23.00;102015.00;;;;5019861;28;20346;-66
2022/07/18 04:32:17;;;;;;;1.90;1.30;;;23.70;43.60;23.00;102012.00;;;;5020509;28;20506;-67
2022/07/18 04:35:05;;;;;;;3.80;1.05;;;23.70;43.60;23.00;102001.00;;;;5023014;28;20103;-67
2022/07/18 04:37:51;;;;;;;1.70;1.10;;;23.70;43.60;23.00;101998.00;;;;5022324;28;20057;-67
2022/07/18 04:40:37;;;;;;;1.92;1.27;;;23.70;43.60;23.00;101997.00;;;;5020732;28;20399;-66
2022/07/18 04:43:23;;;;;;;4.63;1.35;;;23.70;43.60;23.00;102003.00;;;;5022072;28;20034;-66
2022/07/18 04:46:09;;;;;;;2.72;1.15;;;23.80;43.70;23.00;101998.00;;;;5024650;28;20402;-66
2022/07/18 04:48:55;;;;;;;4.07;1.35;;;23.80;43.60;23.00;101997.00;;;;5022967;28;20179;-67
2022/07/18 04:51:41;;;;;;;5.65;1.38;;;23.70;43.60;23.00;101997.00;;;;5022602;28;20087;-66
2022/07/18 04:54:27;;;;;;;3.28;1.50;;;23.80;43.70;23.00;101998.00;;;;5018457;28;20058;-67
2022/07/18 04:57:14;;;;;;;3.45;1.20;;;23.80;43.70;23.00;101994.00;;;;5021974;28;20045;-67
2022/07/18 05:00:13;;;;;;;2.65;1.60;;;23.80;43.70;23.00;101999.00;;;;5027227;28;20037;-66
2022/07/18 05:02:59;;;;;;;5.30;1.40;;;23.80;43.70;23.00;101994.00;;;;5022543;28;20069;-66
2022/07/18 05:05:45;;;;;;;3.22;1.30;;;23.80;43.70;23.00;102006.00;;;;5025551;28;20100;-67
2022/07/18 05:08:31;;;;;;;1.73;1.10;;;23.80;43.70;23.00;102009.00;;;;5020472;28;20037;-67
2022/07/18 05:11:17;;;;;;;1.67;1.40;;;23.90;43.70;23.00;102004.00;;;;5020815;28;20052;-67
2022/07/18 05:14:03;;;;;;;2.33;1.02;;;23.80;43.60;23.10;102011.00;;;;5020205;28;20549;-67
2022/07/18 05:16:49;;;;;;;2.25;1.40;;;23.90;43.60;23.10;102018.00;;;;5017409;28;20049;-67
2022/07/18 05:19:35;;;;;;;2.00;1.10;;;23.80;43.50;23.10;102014.00;;;;5023867;28;20148;-67
2022/07/18 05:22:21;;;;;;;1.50;1.20;;;23.90;43.50;23.10;102007.00;;;;5017341;28;20033;-66
2022/07/18 05:25:08;;;;;;;6.60;1.48;;;23.80;43.40;23.10;101993.00;;;;5024636;28;20391;-67
2022/07/18 05:27:54;;;;;;;3.28;1.55;;;23.90;43.50;23.10;101986.00;;;;5034837;28;20038;-67
2022/07/18 05:30:40;;;;;;;2.28;1.33;;;24.00;43.50;23.10;101980.00;;;;5020290;28;20120;-66
2022/07/18 05:33:27;;;;;;;2.25;1.23;;;23.90;43.40;23.10;101975.00;;;;5022753;28;20042;-66
2022/07/18 05:36:13;;;;;;;2.17;1.23;;;24.00;43.50;23.10;101978.00;;;;5022856;28;20052;-67
2022/07/18 05:38:59;;;;;;;1.67;1.27;;;24.00;43.40;23.10;101982.00;;;;5020470;28;20048;-66
2022/07/18 05:41:45;;;;;;;2.42;1.05;;;24.00;43.50;23.10;101978.00;;;;5027172;28;20379;-66
2022/07/18 05:44:31;;;;;;;2.05;1.23;;;24.00;43.50;23.10;101972.00;;;;5019401;28;20045;-67
2022/07/18 05:47:17;;;;;;;2.88;1.30;;;24.00;43.40;23.10;101964.00;;;;5018081;28;20470;-66
2022/07/18 05:50:04;;;;;;;1.75;1.30;;;24.00;43.40;23.10;101960.00;;;;5017571;28;20042;-66
2022/07/18 05:52:50;;;;;;;2.28;1.60;;;24.00;43.30;23.10;101964.00;;;;5022249;28;20053;-67
2022/07/18 05:55:36;;;;;;;1.17;0.95;;;24.00;43.30;23.10;101956.00;;;;5023237;28;20152;-67
2022/07/18 05:58:22;;;;;;;2.95;1.08;;;24.00;43.40;23.10;101959.00;;;;5024869;28;20029;-66
2022/07/18 06:01:09;;;;;;;1.80;1.15;;;24.10;43.40;23.10;101968.00;;;;5028170;28;20037;-66
2022/07/18 06:03:55;;;;;;;1.95;1.02;;;24.10;43.40;23.10;101977.00;;;;5023267;28;20232;-66
2022/07/18 06:06:41;;;;;;;2.85;1.45;;;24.10;43.40;23.20;101967.00;;;;5031323;28;20045;-67
2022/07/18 06:09:30;;;;;;;2.50;1.10;;;24.10;43.40;23.20;101976.00;;;;5027402;28;20084;-66
2022/07/18 06:12:16;;;;;;;1.42;0.93;;;24.10;43.40;23.20;101980.00;;;;5025994;28;20045;-66
2022/07/18 06:15:02;;;;;;;2.20;1.02;;;24.10;43.30;23.20;101987.00;;;;5025319;28;20128;-66
2022/07/18 06:17:48;;;;;;;1.83;1.10;;;24.10;43.30;23.20;101980.00;;;;5020730;28;20041;-66
2022/07/18 06:20:35;;;;;;;2.58;1.13;;;24.10;43.40;23.20;101986.00;;;;5022516;28;20315;-67
2022/07/18 06:23:21;;;;;;;2.60;1.17;;;24.10;43.40;23.20;101986.00;;;;5018725;28;20500;-67
2022/07/18 06:26:07;;;;;;;2.28;1.20;;;24.10;43.30;23.20;101985.00;;;;5025484;28;20048;-67
2022/07/18 06:28:53;;;;;;;2.42;1.10;;;24.20;43.40;23.20;101982.00;;;;5021274;28;20049;-67
2022/07/18 06:31:39;;;;;;;1.88;1.10;;;24.10;43.40;23.20;101986.00;;;;5025144;28;20052;-66
2022/07/18 06:34:25;;;;;;;1.55;1.25;;;24.20;43.40;23.20;101987.00;;;;5027809;28;20041;-66
2022/07/18 06:37:11;;;;;;;2.08;1.00;;;24.20;43.30;23.20;101988.00;;;;5022092;28;20048;-67
2022/07/18 06:39:57;;;;;;;1.20;0.82;;;24.20;43.30;23.20;101973.00;;;;5000229;28;20034;-66
2022/07/18 06:42:43;;;;;;;1.52;0.90;;;24.20;43.40;23.20;101978.00;;;;5027325;28;20402;-66
2022/07/18 06:45:29;;;;;;;2.10;1.00;;;24.20;43.40;23.20;101972.00;;;;5021478;28;20045;-66
2022/07/18 06:48:16;;;;;;;1.85;1.08;;;24.20;43.40;23.20;101963.00;;;;5022749;28;20042;-67
2022/07/18 06:51:03;;;;;;;2.40;1.10;;;24.20;43.40;23.20;101968.00;;;;5024611;28;20103;-66
2022/07/18 06:53:49;;;;;;;2.70;1.20;;;24.20;43.40;23.20;101949.00;;;;5024486;28;20438;-67
2022/07/18 06:56:35;;;;;;;1.88;1.13;;;24.20;43.40;23.20;101947.00;;;;5025368;28;20470;-67
2022/07/18 06:59:21;;;;;;;3.80;1.20;;;24.20;43.40;23.20;101944.00;;;;5019155;28;20531;-67
2022/07/18 07:02:07;;;;;;;1.48;0.90;;;24.20;43.30;23.20;101943.00;;;;5022792;28;20084;-66
2022/07/18 07:04:53;;;;;;;2.10;0.90;;;24.20;43.30;23.20;101937.00;;;;5019790;28;20096;-67
2022/07/18 07:07:39;;;;;;;2.10;0.88;;;24.20;43.40;23.20;101940.00;;;;5023623;28;20076;-67
2022/07/18 07:10:25;;;;;;;1.95;1.23;;;24.20;43.40;23.20;101943.00;;;;5018374;28;20045;-67
2022/07/18 07:13:12;;;;;;;1.70;1.05;;;24.20;43.30;23.20;101933.00;;;;5018126;28;20049;-67
2022/07/18 07:15:58;;;;;;;2.33;1.17;;;24.20;43.40;23.20;101930.00;;;;5022763;28;20053;-67
2022/07/18 07:18:44;;;;;;;1.73;0.93;;;24.20;43.40;23.20;101926.00;;;;5027688;28;20068;-67
2022/07/18 07:21:30;;;;;;;2.10;0.80;;;24.20;43.40;23.20;101930.00;;;;5022733;28;20041;-67
2022/07/18 07:24:16;;;;;;;2.60;1.00;;;24.20;43.30;23.30;101937.00;;;;5021867;28;20049;-67
2022/07/18 07:27:02;;;;;;;2.55;1.27;;;24.20;43.30;23.20;101936.00;;;;5020452;28;20037;-66
2022/07/18 07:29:48;;;;;;;1.92;0.98;;;24.20;43.40;23.30;101939.00;;;;5020429;28;20045;-66
2022/07/18 07:32:35;;;;;;;2.45;1.00;;;24.20;43.40;23.30;101941.00;;;;5026378;28;20041;-66
2022/07/18 07:35:22;;;;;;;2.63;1.00;;;24.20;43.40;23.30;101947.00;;;;5023825;28;20155;-67
2022/07/18 07:38:08;;;;;;;3.20;1.27;;;24.20;43.40;23.30;101939.00;;;;5020464;28;20656;-67
2022/07/18 07:40:54;;;;;;;1.58;0.88;;;24.10;43.30;23.30;101933.00;;;;5021875;28;20049;-67
2022/07/18 07:43:41;;;;;;;2.13;1.20;;;24.20;43.40;23.30;101931.00;;;;5020952;28;20483;-67
2022/07/18 07:46:27;;;;;;;2.38;1.00;;;24.20;43.40;23.30;101928.00;;;;5024744;28;20049;-67
2022/07/18 07:49:13;;;;;;;1.60;0.90;;;24.20;43.40;23.30;101916.00;;;;5020491;28;20069;-66
2022/07/18 07:51:59;;;;;;;1.77;1.05;;;24.20;43.40;23.30;101912.00;;;;5021917;28;20049;-67
2022/07/18 07:54:45;;;;;;;1.00;0.68;;;24.20;43.50;23.30;101916.00;;;;5022858;28;20387;-67
2022/07/18 07:57:32;;;;;;;2.58;1.05;;;24.20;43.40;23.30;101913.00;;;;5024861;28;20049;-67
2022/07/18 08:00:18;;;;;;;1.25;0.70;;;24.20;43.50;23.30;101912.00;;;;5042023;28;20683;-66
2022/07/18 08:03:06;;;;;;;1.88;0.73;;;24.30;43.50;23.30;101909.00;;;;5022027;28;20038;-67
2022/07/18 08:05:52;;;;;;;3.47;0.93;;;24.20;43.40;23.30;101909.00;;;;5021743;28;20746;-67
2022/07/18 08:08:38;;;;;;;3.85;1.15;;;24.20;43.50;23.30;101906.00;;;;5020832;28;20041;-67
2022/07/18 08:11:24;;;;;;;2.90;1.02;;;24.30;43.60;23.30;101906.00;;;;5021941;28;20049;-66
2022/07/18 08:14:10;;;;;;;2.60;0.73;;;24.20;43.40;23.30;101899.00;;;;5023023;28;20049;-67
2022/07/18 08:16:56;;;;;;;5.85;1.00;;;24.30;43.50;23.30;101908.00;;;;5015879;28;20407;-67
2022/07/18 08:19:42;;;;;;;2.60;0.85;;;24.30;43.50;23.30;101911.00;;;;5024098;28;20041;-67
2022/07/18 08:22:28;;;;;;;1.33;0.80;;;24.20;43.40;23.30;101900.00;;;;5019573;28;20467;-67
2022/07/18 08:25:14;;;;;;;1.05;0.65;;;24.30;43.50;23.30;101904.00;;;;5018420;28;20049;-67
2022/07/18 08:28:01;;;;;;;2.53;1.00;;;24.30;43.50;23.30;101901.00;;;;5020202;28;20068;-67
2022/07/18 08:30:47;;;;;;;1.70;1.33;;;24.30;43.50;23.30;101915.00;;;;5005547;28;20096;-67
2022/07/18 08:33:33;;;;;;;1.33;0.90;;;24.30;43.50;23.30;101903.00;;;;5024015;28;20055;-66
2022/07/18 08:36:20;;;;;;;2.60;0.88;;;24.30;43.40;23.30;101909.00;;;;5017901;28;20198;-67
2022/07/18 08:39:06;;;;;;;1.50;0.90;;;24.30;43.50;23.30;101909.00;;;;5025068;28;20053;-66
2022/07/18 08:41:52;;;;;;;1.83;0.70;;;24.30;43.50;23.30;101911.00;;;;5021957;28;20067;-67
2022/07/18 08:44:40;;;;;;;3.47;1.35;;;24.30;43.40;23.30;101904.00;;;;5010806;28;20037;-67
2022/07/18 08:47:28;;;;;;;0.70;0.68;;;24.30;43.40;23.30;101900.00;;;;5019625;28;20073;-67
2022/07/18 08:50:14;;;;;;;2.35;0.90;;;24.30;43.50;23.30;101906.00;;;;5021360;28;20038;-67
2022/07/18 08:53:01;;;;;;;1.67;0.95;;;24.30;43.30;23.30;101903.00;;;;5048745;28;20577;-67
2022/07/18 08:55:47;;;;;;;2.72;0.80;;;24.30;43.60;23.30;101907.00;;;;5040473;28;20072;-67
2022/07/18 08:58:34;;;;;;;3.88;1.20;;;24.30;43.50;23.30;101911.00;;;;5020995;28;20045;-67
2022/07/18 09:01:20;;;;;;;3.20;1.17;;;24.30;43.40;23.30;101902.00;;;;5022657;28;20040;-67
2022/07/18 09:04:16;;;;;;;3.80;1.00;;;24.30;43.40;23.30;101906.00;;;;5018712;28;20041;-67
2022/07/18 09:07:03;;;;;;;2.40;0.77;;;24.20;43.30;23.30;101895.00;;;;5017509;28;20049;-67
2022/07/18 09:09:56;;;;;;;1.77;0.80;;;24.30;43.40;23.30;101901.00;;;;5019264;28;20080;-67
2022/07/18 09:12:56;;;;;;;2.10;0.80;;;24.20;44.10;23.30;101896.00;;;;5021781;28;20403;-66
2022/07/18 09:16:04;;;;;;;3.25;0.93;;;24.30;43.40;23.30;101896.00;;;;5023703;28;20107;-67
2022/07/18 09:18:50;;;;;;;2.03;0.80;;;24.30;43.40;23.30;101894.00;;;;5020708;28;20490;-67
2022/07/18 09:21:36;;;;;;;1.55;0.75;;;24.40;43.50;23.30;101891.00;;;;5016924;28;20041;-67
2022/07/18 09:24:23;;;;;;;0.95;0.75;;;24.40;43.10;23.30;101898.00;;;;5027461;28;20032;-67
2022/07/18 09:27:43;;;;;;;3.00;0.83;;;24.40;43.30;23.30;101897.00;;;;5019628;28;20050;-67
2022/07/18 09:30:34;;;;;;;1.60;0.82;;;24.40;43.20;23.30;101889.00;;;;5050503;28;20107;-67
2022/07/18 09:33:21;;;;;;;2.90;0.70;;;24.40;43.20;23.30;101886.00;;;;5024183;28;20052;-67
2022/07/18 09:36:07;;;;;;;1.42;0.90;;;24.40;43.10;23.30;101886.00;;;;5030129;28;20037;-67
2022/07/18 09:38:54;;;;;;;2.72;1.00;;;24.40;42.90;23.30;101886.00;;;;5023116;28;20064;-67
2022/07/18 09:41:40;;;;;;;1.10;0.73;;;24.40;42.60;23.30;101881.00;;;;5031764;28;20041;-66
2022/07/18 09:44:26;;;;;;;1.50;0.90;;;24.40;42.70;23.30;101886.00;;;;5027347;28;20029;-67
2022/07/18 09:47:12;;;;;;;1.63;0.80;;;24.40;42.70;23.30;101884.00;;;;5026051;28;20072;-67
2022/07/18 09:49:58;;;;;;;2.40;0.80;;;24.40;42.60;23.30;101890.00;;;;5025824;28;20041;-67
2022/07/18 09:52:44;;;;;;;1.63;1.02;;;24.40;42.40;23.30;101888.00;;;;5023385;28;20045;-67
2022/07/18 09:55:30;;;;;;;2.65;1.00;;;24.40;42.50;23.30;101881.00;;;;5032387;28;20037;-67
2022/07/18 09:58:25;;;;;;;5.10;1.05;;;24.40;42.40;23.30;101884.00;;;;5026823;28;20046;-68
2022/07/18 10:01:11;;;;;;;0.75;0.52;;;24.40;42.30;23.30;101886.00;;;;5038680;28;20544;-67
2022/07/18 10:03:58;;;;;;;0.80;0.65;;;24.40;42.00;23.30;101878.00;;;;5018314;28;20034;-67
2022/07/18 10:06:45;;;;;;;2.97;0.60;;;24.40;41.80;23.30;101880.00;;;;5026650;28;20565;-67
2022/07/18 10:09:31;;;;;;;1.85;0.52;;;24.40;42.10;23.30;101876.00;;;;5027187;28;20272;-67
2022/07/18 10:12:17;;;;;;;1.67;0.60;;;24.50;41.70;23.30;101865.00;;;;5022217;28;20056;-67
2022/07/18 10:15:03;;;;;;;2.35;0.90;;;24.40;41.80;23.30;101876.00;;;;5015709;28;20037;-67
2022/07/18 10:17:49;;;;;;;1.65;0.80;;;24.50;42.00;23.30;101870.00;;;;5011095;28;20049;-66
2022/07/18 10:20:36;;;;;;;4.93;1.00;;;24.50;42.20;23.30;101878.00;;;;5025207;28;20284;-67
2022/07/18 10:23:48;;;;;;;3.85;0.80;;;24.40;41.60;23.40;101878.00;;;;5022766;28;20498;-67
2022/07/18 10:26:34;;;;;;;2.15;0.70;;;24.50;41.90;23.30;101860.00;;;;5027285;28;20131;-67
2022/07/18 10:29:20;;;;;;;4.68;0.88;;;24.50;41.90;23.40;101861.00;;;;5016061;28;20060;-68
2022/07/18 10:32:08;;;;;;;2.05;0.70;;;24.50;41.80;23.40;101856.00;;;;5025149;28;20045;-67
2022/07/18 10:34:54;;;;;;;1.23;0.70;;;24.50;42.50;23.40;101844.00;;;;5024345;28;20045;-67
2022/07/18 10:37:40;;;;;;;1.15;0.70;;;24.50;42.00;23.40;101861.00;;;;5022341;28;20046;-67
2022/07/18 10:40:28;;;;;;;2.25;0.88;;;24.50;41.40;23.40;101845.00;;;;5023876;28;20120;-67
2022/07/18 10:43:29;;;;;;;;;;;24.50;41.70;23.30;101851.00;;;;5035236;28;20674;-67
2022/07/18 10:46:15;;;;;;;1.10;0.60;;;24.50;42.00;23.40;101843.00;;;;5025775;28;20000;-67
2022/07/18 10:49:01;;;;;;;0.75;0.60;;;24.60;42.40;23.40;101847.00;;;;5035436;28;20085;-67
2022/07/18 10:51:48;;;;;;;1.90;0.75;;;24.50;41.50;23.40;101844.00;;;;5021967;28;20041;-67
2022/07/18 10:54:34;;;;;;;1.35;0.70;;;24.60;41.80;23.40;101849.00;;;;5022058;28;20219;-67
2022/07/18 10:57:20;;;;;;;1.88;1.10;;;24.60;41.40;23.40;101850.00;;;;5014328;28;20037;-67
2022/07/18 11:00:09;;;;;;;1.40;0.60;;;24.60;41.00;23.40;101842.00;;;;5029262;28;20158;-67
2022/07/18 11:03:04;;;;;;;1.38;0.77;;;24.60;40.80;23.40;101843.00;;;;5023174;28;20033;-67
2022/07/18 11:05:52;;;;;;;1.88;0.88;;;24.60;41.00;23.40;101840.00;;;;5025302;28;20548;-67
2022/07/18 11:08:39;;;;;;;1.15;0.77;;;24.50;40.70;23.40;101849.00;;;;5036969;28;20053;-67
2022/07/18 11:11:25;;;;;;;1.02;0.90;;;24.60;40.70;23.40;101850.00;;;;5026651;28;20048;-67
2022/07/18 11:14:11;;;;;;;2.33;1.05;;;24.60;41.00;23.40;101842.00;;;;5026667;28;20048;-67
2022/07/18 11:17:06;;;;;;;1.88;1.08;;;24.60;40.70;23.40;101842.00;;;;5014217;28;20466;-67
2022/07/18 11:20:26;;;;;;;1.42;1.02;;;24.60;40.50;23.40;101843.00;;;;5020899;28;20476;-67
2022/07/18 11:23:20;;;;;;;2.08;1.08;;;24.60;40.40;23.40;101831.00;;;;5019581;28;20037;-67
2022/07/18 11:26:09;;;;;;;1.52;1.10;;;24.60;40.60;23.40;101834.00;;;;5038184;28;20041;-67
2022/07/18 11:29:07;;;;;;;1.33;1.10;;;24.60;40.90;23.40;101832.00;;;;5023552;28;20458;-67
2022/07/18 11:31:57;;;;;;;1.52;0.80;;;24.60;40.80;23.40;101826.00;;;;5040179;28;20395;-67
2022/07/18 11:34:50;;;;;;;2.63;1.10;;;24.60;41.00;23.50;101832.00;;;;5028674;28;20037;-67
2022/07/18 11:37:36;;;;;;;1.88;0.93;;;24.60;41.20;23.50;101817.00;;;;5012448;28;20041;-67
2022/07/18 11:40:22;;;;;;;3.05;1.10;;;24.50;41.00;23.50;101812.00;;;;5022628;28;20033;-67
2022/07/18 11:43:08;;;;;;;1.77;1.02;;;24.60;40.70;23.50;101819.00;;;;5024410;28;20038;-67
2022/07/18 11:46:09;;;;;;;2.95;1.00;;;24.60;40.90;23.50;101808.00;;;;5022090;28;20107;-67
2022/07/18 11:49:05;;;;;;;1.45;0.98;;;24.60;40.90;23.50;101809.00;;;;5024869;28;20048;-67
2022/07/18 11:51:51;;;;;;;1.02;0.80;;;24.70;41.10;23.50;101802.00;;;;5021546;28;20554;-67
2022/07/18 11:54:37;;;;;;;3.00;1.25;;;24.60;41.30;23.50;101800.00;;;;5019879;28;20033;-67
2022/07/18 11:57:31;;;;;;;1.10;0.90;;;24.60;40.90;23.50;101795.00;;;;5022674;28;20495;-67
2022/07/18 12:00:19;;;;;;;1.67;1.02;;;24.70;40.80;23.50;101800.00;;;;5026775;28;20406;-67
2022/07/18 12:03:20;;;;;;;2.35;0.93;;;24.70;41.00;23.50;101792.00;;;;5021207;28;20048;-67
2022/07/18 12:06:21;;;;;;;3.65;1.15;;;24.70;40.50;23.50;101790.00;;;;5023820;28;20037;-67
2022/07/18 12:09:07;;;;;;;1.40;1.00;;;24.70;40.90;23.50;101790.00;;;;5023199;28;20113;-67
2022/07/18 12:11:53;;;;;;;1.48;1.00;;;24.70;41.00;23.50;101783.00;;;;5023516;28;20410;-67
2022/07/18 12:14:39;;;;;;;1.63;0.98;;;24.70;41.10;23.50;101776.00;;;;5024318;28;20115;-67
2022/07/18 12:17:26;;;;;;;1.30;0.82;;;24.80;41.10;23.50;101781.00;;;;5018734;28;20038;-67